sensor_id;sensor_type;location;lat;lon;timestamp;temperature;humidity
18446;DHT22;9352;50.888;4.466;2023-03-23T00:01:29;13.70;99.90
18446;DHT22;9352;50.888;4.466;2023-03-23T00:03:58;13.70;99.90
18446;DHT22;9352;50.888;4.466;2023-03-23T00:06:27;13.70;99.90
18446;DHT22;9352;50.888;4.466;2023-03-23T00:09:02;13.70;99.90
18446;DHT22;9352;50.888;4.466;2023-03-23T00:11:31;13.70;99.90
18446;DHT22;9352;50.888;4.466;2023-03-23T00:13:59;13.70;99.90
18446;DHT22;9352;50.888;4.466;2023-03-23T00:16:29;13.70;99.90
18446;DHT22;9352;50.888;4.466;2023-03-23T00:18:58;13.70;99.90
18446;DHT22;9352;50.888;4.466;2023-03-23T00:21:27;13.70;99.90
18446;DHT22;9352;50.888;4.466;2023-03-23T00:24:01;13.70;99.90
18446;DHT22;9352;50.888;4.466;2023-03-23T00:26:28;13.70;99.90
18446;DHT22;9352;50.888;4.466;2023-03-23T00:28:59;13.70;99.90
18446;DHT22;9352;50.888;4.466;2023-03-23T00:31:27;13.70;99.90
18446;DHT22;9352;50.888;4.466;2023-03-23T00:33:57;13.60;99.90
18446;DHT22;9352;50.888;4.466;2023-03-23T00:36:26;13.60;99.90
18446;DHT22;9352;50.888;4.466;2023-03-23T00:38:54;13.60;99.90
18446;DHT22;9352;50.888;4.466;2023-03-23T00:41:25;13.60;99.90
18446;DHT22;9352;50.888;4.466;2023-03-23T00:43:54;13.70;99.90
18446;DHT22;9352;50.888;4.466;2023-03-23T00:46:21;13.70;99.90
18446;DHT22;9352;50.888;4.466;2023-03-23T00:48:48;13.70;99.90
18446;DHT22;9352;50.888;4.466;2023-03-23T00:51:16;13.60;99.90
18446;DHT22;9352;50.888;4.466;2023-03-23T00:53:44;13.70;99.90
18446;DHT22;9352;50.888;4.466;2023-03-23T00:56:11;13.70;99.90
18446;DHT22;9352;50.888;4.466;2023-03-23T00:58:40;13.70;99.90
18446;DHT22;9352;50.888;4.466;2023-03-23T01:01:07;13.70;99.90
18446;DHT22;9352;50.888;4.466;2023-03-23T01:03:34;13.70;99.90
18446;DHT22;9352;50.888;4.466;2023-03-23T01:06:05;13.70;99.90
18446;DHT22;9352;50.888;4.466;2023-03-23T01:08:34;13.70;99.90
18446;DHT22;9352;50.888;4.466;2023-03-23T01:11:05;13.70;99.90
18446;DHT22;9352;50.888;4.466;2023-03-23T01:13:33;13.70;99.90
18446;DHT22;9352;50.888;4.466;2023-03-23T01:16:02;13.80;99.90
18446;DHT22;9352;50.888;4.466;2023-03-23T01:18:29;13.80;99.90
18446;DHT22;9352;50.888;4.466;2023-03-23T01:20:56;13.70;99.90
18446;DHT22;9352;50.888;4.466;2023-03-23T01:23:23;13.70;99.90
18446;DHT22;9352;50.888;4.466;2023-03-23T01:25:50;13.70;99.90
18446;DHT22;9352;50.888;4.466;2023-03-23T01:28:19;13.80;99.90
18446;DHT22;9352;50.888;4.466;2023-03-23T01:30:46;13.70;99.90
18446;DHT22;9352;50.888;4.466;2023-03-23T01:33:15;13.70;99.90
18446;DHT22;9352;50.888;4.466;2023-03-23T01:35:42;13.70;99.90
18446;DHT22;9352;50.888;4.466;2023-03-23T01:38:08;13.70;99.90
18446;DHT22;9352;50.888;4.466;2023-03-23T01:40:35;13.70;99.90
18446;DHT22;9352;50.888;4.466;2023-03-23T01:43:02;13.70;99.90
18446;DHT22;9352;50.888;4.466;2023-03-23T01:45:32;13.70;99.90
18446;DHT22;9352;50.888;4.466;2023-03-23T01:48:09;13.70;99.90
18446;DHT22;9352;50.888;4.466;2023-03-23T01:50:45;13.70;99.90
18446;DHT22;9352;50.888;4.466;2023-03-23T01:53:14;13.60;99.90
18446;DHT22;9352;50.888;4.466;2023-03-23T01:55:43;13.60;99.90
18446;DHT22;9352;50.888;4.466;2023-03-23T01:58:15;13.70;99.90
18446;DHT22;9352;50.888;4.466;2023-03-23T02:00:43;13.70;99.90
18446;DHT22;9352;50.888;4.466;2023-03-23T02:03:12;13.70;99.90
18446;DHT22;9352;50.888;4.466;2023-03-23T02:05:43;13.70;99.90
18446;DHT22;9352;50.888;4.466;2023-03-23T02:08:11;13.70;99.90
18446;DHT22;9352;50.888;4.466;2023-03-23T02:10:39;13.70;99.90
18446;DHT22;9352;50.888;4.466;2023-03-23T02:13:09;13.70;99.90
18446;DHT22;9352;50.888;4.466;2023-03-23T02:15:45;13.70;99.90
18446;DHT22;9352;50.888;4.466;2023-03-23T02:18:23;13.70;99.90
18446;DHT22;9352;50.888;4.466;2023-03-23T02:26:55;13.70;99.90
18446;DHT22;9352;50.888;4.466;2023-03-23T02:29:46;13.60;99.90
18446;DHT22;9352;50.888;4.466;2023-03-23T02:32:32;13.60;99.90
18446;DHT22;9352;50.888;4.466;2023-03-23T02:35:10;13.60;99.90
18446;DHT22;9352;50.888;4.466;2023-03-23T02:37:42;13.60;99.90
18446;DHT22;9352;50.888;4.466;2023-03-23T02:40:15;13.60;99.90
18446;DHT22;9352;50.888;4.466;2023-03-23T02:42:47;13.60;99.90
18446;DHT22;9352;50.888;4.466;2023-03-23T02:45:17;13.60;99.90
18446;DHT22;9352;50.888;4.466;2023-03-23T02:47:48;13.60;99.90
18446;DHT22;9352;50.888;4.466;2023-03-23T02:50:21;13.60;99.90
18446;DHT22;9352;50.888;4.466;2023-03-23T02:52:50;13.60;99.90
18446;DHT22;9352;50.888;4.466;2023-03-23T02:55:18;13.60;99.90
18446;DHT22;9352;50.888;4.466;2023-03-23T02:57:46;13.60;99.90
18446;DHT22;9352;50.888;4.466;2023-03-23T03:00:15;13.60;99.90
18446;DHT22;9352;50.888;4.466;2023-03-23T03:02:45;13.60;99.90
18446;DHT22;9352;50.888;4.466;2023-03-23T03:05:22;13.60;99.90
18446;DHT22;9352;50.888;4.466;2023-03-23T03:08:01;13.60;99.90
18446;DHT22;9352;50.888;4.466;2023-03-23T03:10:34;13.60;99.90
18446;DHT22;9352;50.888;4.466;2023-03-23T03:13:09;13.60;99.90
18446;DHT22;9352;50.888;4.466;2023-03-23T03:15:43;13.60;99.90
18446;DHT22;9352;50.888;4.466;2023-03-23T03:18:15;13.60;99.90
18446;DHT22;9352;50.888;4.466;2023-03-23T03:20:47;13.60;99.90
18446;DHT22;9352;50.888;4.466;2023-03-23T03:23:16;13.60;99.90
18446;DHT22;9352;50.888;4.466;2023-03-23T03:25:45;13.60;99.90
18446;DHT22;9352;50.888;4.466;2023-03-23T03:28:16;13.60;99.90
18446;DHT22;9352;50.888;4.466;2023-03-23T03:30:48;13.60;99.90
18446;DHT22;9352;50.888;4.466;2023-03-23T03:33:17;13.60;99.90
18446;DHT22;9352;50.888;4.466;2023-03-23T03:35:48;13.60;99.90
18446;DHT22;9352;50.888;4.466;2023-03-23T03:38:15;13.60;99.90
18446;DHT22;9352;50.888;4.466;2023-03-23T03:40:42;13.60;99.90
18446;DHT22;9352;50.888;4.466;2023-03-23T03:43:09;13.60;99.90
18446;DHT22;9352;50.888;4.466;2023-03-23T03:45:36;13.60;99.90
18446;DHT22;9352;50.888;4.466;2023-03-23T03:48:03;13.60;99.90
18446;DHT22;9352;50.888;4.466;2023-03-23T03:50:31;13.60;99.90
18446;DHT22;9352;50.888;4.466;2023-03-23T03:52:59;13.60;99.90
18446;DHT22;9352;50.888;4.466;2023-03-23T03:55:26;13.60;99.90
18446;DHT22;9352;50.888;4.466;2023-03-23T03:57:53;13.60;99.90
18446;DHT22;9352;50.888;4.466;2023-03-23T04:00:21;13.60;99.90
18446;DHT22;9352;50.888;4.466;2023-03-23T04:02:50;13.60;99.90
18446;DHT22;9352;50.888;4.466;2023-03-23T04:05:20;13.60;99.90
18446;DHT22;9352;50.888;4.466;2023-03-23T04:07:47;13.60;99.90
18446;DHT22;9352;50.888;4.466;2023-03-23T04:10:19;13.60;99.90
18446;DHT22;9352;50.888;4.466;2023-03-23T04:12:48;13.60;99.90
18446;DHT22;9352;50.888;4.466;2023-03-23T04:15:15;13.60;99.90
18446;DHT22;9352;50.888;4.466;2023-03-23T04:17:42;13.60;99.90
18446;DHT22;9352;50.888;4.466;2023-03-23T04:20:10;13.50;99.90
18446;DHT22;9352;50.888;4.466;2023-03-23T04:22:43;13.50;99.90
18446;DHT22;9352;50.888;4.466;2023-03-23T04:25:12;13.50;99.90
18446;DHT22;9352;50.888;4.466;2023-03-23T04:27:41;13.50;99.90
18446;DHT22;9352;50.888;4.466;2023-03-23T04:30:12;13.50;99.90
18446;DHT22;9352;50.888;4.466;2023-03-23T04:32:40;13.40;99.90
18446;DHT22;9352;50.888;4.466;2023-03-23T04:35:08;13.50;99.90
18446;DHT22;9352;50.888;4.466;2023-03-23T04:37:37;13.40;99.90
18446;DHT22;9352;50.888;4.466;2023-03-23T04:40:05;13.40;99.90
18446;DHT22;9352;50.888;4.466;2023-03-23T04:42:37;13.40;99.90
18446;DHT22;9352;50.888;4.466;2023-03-23T04:45:07;13.50;99.90
18446;DHT22;9352;50.888;4.466;2023-03-23T04:47:36;13.40;99.90
18446;DHT22;9352;50.888;4.466;2023-03-23T04:50:07;13.40;99.90
18446;DHT22;9352;50.888;4.466;2023-03-23T04:52:35;13.40;99.90
18446;DHT22;9352;50.888;4.466;2023-03-23T04:55:04;13.40;99.90
18446;DHT22;9352;50.888;4.466;2023-03-23T04:57:32;13.40;99.90
18446;DHT22;9352;50.888;4.466;2023-03-23T05:00:00;13.40;99.90
18446;DHT22;9352;50.888;4.466;2023-03-23T05:02:32;13.30;99.90
18446;DHT22;9352;50.888;4.466;2023-03-23T05:04:59;13.30;99.90
18446;DHT22;9352;50.888;4.466;2023-03-23T05:07:26;13.20;99.90
18446;DHT22;9352;50.888;4.466;2023-03-23T05:09:53;13.20;99.90
18446;DHT22;9352;50.888;4.466;2023-03-23T05:12:20;13.20;99.90
18446;DHT22;9352;50.888;4.466;2023-03-23T05:14:47;13.20;99.90
18446;DHT22;9352;50.888;4.466;2023-03-23T05:17:14;13.20;99.90
18446;DHT22;9352;50.888;4.466;2023-03-23T05:19:44;13.20;99.90
18446;DHT22;9352;50.888;4.466;2023-03-23T05:22:13;13.20;99.90
18446;DHT22;9352;50.888;4.466;2023-03-23T05:24:40;13.10;99.90
18446;DHT22;9352;50.888;4.466;2023-03-23T05:27:08;13.20;99.90
18446;DHT22;9352;50.888;4.466;2023-03-23T05:29:35;13.20;99.90
18446;DHT22;9352;50.888;4.466;2023-03-23T05:32:03;13.20;99.90
18446;DHT22;9352;50.888;4.466;2023-03-23T05:34:31;13.20;99.90
18446;DHT22;9352;50.888;4.466;2023-03-23T05:37:00;13.20;99.90
18446;DHT22;9352;50.888;4.466;2023-03-23T05:39:28;13.20;99.90
18446;DHT22;9352;50.888;4.466;2023-03-23T05:41:56;13.20;99.90
18446;DHT22;9352;50.888;4.466;2023-03-23T05:44:24;13.20;99.90
18446;DHT22;9352;50.888;4.466;2023-03-23T05:46:52;13.20;99.90
18446;DHT22;9352;50.888;4.466;2023-03-23T05:49:19;13.20;99.90
18446;DHT22;9352;50.888;4.466;2023-03-23T05:51:46;13.20;99.90
18446;DHT22;9352;50.888;4.466;2023-03-23T05:54:14;13.20;99.90
18446;DHT22;9352;50.888;4.466;2023-03-23T05:56:41;13.20;99.90
18446;DHT22;9352;50.888;4.466;2023-03-23T05:59:09;13.20;99.90
18446;DHT22;9352;50.888;4.466;2023-03-23T06:01:36;13.20;99.90
18446;DHT22;9352;50.888;4.466;2023-03-23T06:04:03;13.20;99.90
18446;DHT22;9352;50.888;4.466;2023-03-23T06:06:31;13.20;99.90
18446;DHT22;9352;50.888;4.466;2023-03-23T06:08:58;13.20;99.90
18446;DHT22;9352;50.888;4.466;2023-03-23T06:11:26;13.20;99.90
18446;DHT22;9352;50.888;4.466;2023-03-23T06:13:53;13.20;99.90
18446;DHT22;9352;50.888;4.466;2023-03-23T06:16:20;13.20;99.90
18446;DHT22;9352;50.888;4.466;2023-03-23T06:18:47;13.20;99.90
18446;DHT22;9352;50.888;4.466;2023-03-23T06:21:15;13.20;99.90
18446;DHT22;9352;50.888;4.466;2023-03-23T06:23:44;13.10;99.90
18446;DHT22;9352;50.888;4.466;2023-03-23T06:26:13;13.20;99.90
18446;DHT22;9352;50.888;4.466;2023-03-23T06:28:43;13.20;99.90
18446;DHT22;9352;50.888;4.466;2023-03-23T06:31:10;13.20;99.90
18446;DHT22;9352;50.888;4.466;2023-03-23T06:33:37;13.30;99.90
18446;DHT22;9352;50.888;4.466;2023-03-23T06:36:05;13.30;99.90
18446;DHT22;9352;50.888;4.466;2023-03-23T06:38:33;13.30;99.90
18446;DHT22;9352;50.888;4.466;2023-03-23T06:40:59;13.30;99.90
18446;DHT22;9352;50.888;4.466;2023-03-23T06:43:27;13.30;99.90
18446;DHT22;9352;50.888;4.466;2023-03-23T06:45:58;13.30;99.90
18446;DHT22;9352;50.888;4.466;2023-03-23T06:48:25;13.40;99.90
18446;DHT22;9352;50.888;4.466;2023-03-23T06:50:53;13.40;99.90
18446;DHT22;9352;50.888;4.466;2023-03-23T06:53:20;13.40;99.90
18446;DHT22;9352;50.888;4.466;2023-03-23T06:55:47;13.40;99.90
18446;DHT22;9352;50.888;4.466;2023-03-23T06:58:13;13.30;99.90
18446;DHT22;9352;50.888;4.466;2023-03-23T07:00:41;13.30;99.90
18446;DHT22;9352;50.888;4.466;2023-03-23T07:03:10;13.20;99.90
18446;DHT22;9352;50.888;4.466;2023-03-23T07:05:37;13.10;99.90
18446;DHT22;9352;50.888;4.466;2023-03-23T07:08:04;13.00;99.90
18446;DHT22;9352;50.888;4.466;2023-03-23T07:10:31;12.70;99.90
18446;DHT22;9352;50.888;4.466;2023-03-23T07:12:58;11.80;99.90
18446;DHT22;9352;50.888;4.466;2023-03-23T07:15:26;11.30;99.90
18446;DHT22;9352;50.888;4.466;2023-03-23T07:17:53;11.00;99.90
18446;DHT22;9352;50.888;4.466;2023-03-23T07:20:22;10.70;99.90
18446;DHT22;9352;50.888;4.466;2023-03-23T07:22:49;10.60;99.90
18446;DHT22;9352;50.888;4.466;2023-03-23T07:25:17;10.50;99.90
18446;DHT22;9352;50.888;4.466;2023-03-23T07:27:45;10.40;99.90
18446;DHT22;9352;50.888;4.466;2023-03-23T07:30:13;10.30;99.90
18446;DHT22;9352;50.888;4.466;2023-03-23T07:32:41;10.20;99.90
18446;DHT22;9352;50.888;4.466;2023-03-23T07:35:08;10.20;99.90
18446;DHT22;9352;50.888;4.466;2023-03-23T07:37:37;10.20;99.90
18446;DHT22;9352;50.888;4.466;2023-03-23T07:40:04;10.20;99.90
18446;DHT22;9352;50.888;4.466;2023-03-23T07:42:40;10.30;99.90
18446;DHT22;9352;50.888;4.466;2023-03-23T07:45:08;10.30;99.90
18446;DHT22;9352;50.888;4.466;2023-03-23T07:47:35;10.40;99.90
18446;DHT22;9352;50.888;4.466;2023-03-23T07:50:03;10.40;99.90
18446;DHT22;9352;50.888;4.466;2023-03-23T07:52:32;10.50;99.90
18446;DHT22;9352;50.888;4.466;2023-03-23T07:55:00;10.50;99.90
18446;DHT22;9352;50.888;4.466;2023-03-23T07:57:28;10.60;99.90
18446;DHT22;9352;50.888;4.466;2023-03-23T07:59:55;10.70;99.90
18446;DHT22;9352;50.888;4.466;2023-03-23T08:02:23;10.70;99.90
18446;DHT22;9352;50.888;4.466;2023-03-23T08:04:50;10.80;99.90
18446;DHT22;9352;50.888;4.466;2023-03-23T08:07:19;11.00;99.90
18446;DHT22;9352;50.888;4.466;2023-03-23T08:09:46;11.00;99.90
18446;DHT22;9352;50.888;4.466;2023-03-23T08:12:15;11.10;99.90
18446;DHT22;9352;50.888;4.466;2023-03-23T08:14:42;11.10;99.90
18446;DHT22;9352;50.888;4.466;2023-03-23T08:17:09;11.20;99.90
18446;DHT22;9352;50.888;4.466;2023-03-23T08:19:36;11.30;99.90
18446;DHT22;9352;50.888;4.466;2023-03-23T08:22:04;11.20;99.90
18446;DHT22;9352;50.888;4.466;2023-03-23T08:24:31;11.10;99.90
18446;DHT22;9352;50.888;4.466;2023-03-23T08:26:58;11.00;99.90
18446;DHT22;9352;50.888;4.466;2023-03-23T08:29:27;11.00;99.90
18446;DHT22;9352;50.888;4.466;2023-03-23T08:31:54;10.90;99.90
18446;DHT22;9352;50.888;4.466;2023-03-23T08:34:21;10.90;99.90
18446;DHT22;9352;50.888;4.466;2023-03-23T08:36:48;10.90;99.90
18446;DHT22;9352;50.888;4.466;2023-03-23T08:39:17;10.90;99.90
18446;DHT22;9352;50.888;4.466;2023-03-23T08:41:44;10.90;99.90
18446;DHT22;9352;50.888;4.466;2023-03-23T08:44:11;10.90;99.90
18446;DHT22;9352;50.888;4.466;2023-03-23T08:46:40;10.90;99.90
18446;DHT22;9352;50.888;4.466;2023-03-23T08:49:07;10.90;99.90
18446;DHT22;9352;50.888;4.466;2023-03-23T08:51:34;10.80;99.90
18446;DHT22;9352;50.888;4.466;2023-03-23T08:54:01;10.80;99.90
18446;DHT22;9352;50.888;4.466;2023-03-23T08:56:28;10.90;99.90
18446;DHT22;9352;50.888;4.466;2023-03-23T08:58:55;11.00;99.90
18446;DHT22;9352;50.888;4.466;2023-03-23T09:01:22;11.00;99.90
18446;DHT22;9352;50.888;4.466;2023-03-23T09:03:51;11.10;99.90
18446;DHT22;9352;50.888;4.466;2023-03-23T09:06:18;11.20;99.90
18446;DHT22;9352;50.888;4.466;2023-03-23T09:08:44;11.20;99.90
18446;DHT22;9352;50.888;4.466;2023-03-23T09:11:11;11.20;99.90
18446;DHT22;9352;50.888;4.466;2023-03-23T09:13:39;11.20;99.90
18446;DHT22;9352;50.888;4.466;2023-03-23T09:16:07;11.30;99.90
18446;DHT22;9352;50.888;4.466;2023-03-23T09:18:34;11.30;99.90
18446;DHT22;9352;50.888;4.466;2023-03-23T09:21:03;11.30;99.90
18446;DHT22;9352;50.888;4.466;2023-03-23T09:23:31;11.30;99.90
18446;DHT22;9352;50.888;4.466;2023-03-23T09:26:00;11.30;99.90
18446;DHT22;9352;50.888;4.466;2023-03-23T09:28:27;11.40;99.90
18446;DHT22;9352;50.888;4.466;2023-03-23T09:30:56;11.50;99.90
18446;DHT22;9352;50.888;4.466;2023-03-23T09:33:24;11.50;99.90
18446;DHT22;9352;50.888;4.466;2023-03-23T09:35:52;11.50;99.90
18446;DHT22;9352;50.888;4.466;2023-03-23T09:38:21;11.60;99.90
18446;DHT22;9352;50.888;4.466;2023-03-23T09:40:49;11.60;99.90
18446;DHT22;9352;50.888;4.466;2023-03-23T09:43:34;11.60;99.90
18446;DHT22;9352;50.888;4.466;2023-03-23T09:46:15;11.70;99.90
18446;DHT22;9352;50.888;4.466;2023-03-23T09:48:50;12.20;99.90
18446;DHT22;9352;50.888;4.466;2023-03-23T09:51:30;12.70;99.90
18446;DHT22;9352;50.888;4.466;2023-03-23T09:54:04;13.00;99.90
18446;DHT22;9352;50.888;4.466;2023-03-23T09:56:34;13.30;99.90
18446;DHT22;9352;50.888;4.466;2023-03-23T09:59:07;13.70;99.90
18446;DHT22;9352;50.888;4.466;2023-03-23T10:01:38;13.90;99.90
18446;DHT22;9352;50.888;4.466;2023-03-23T10:04:12;14.00;99.90
18446;DHT22;9352;50.888;4.466;2023-03-23T10:06:40;14.00;99.90
18446;DHT22;9352;50.888;4.466;2023-03-23T10:09:15;14.00;99.90
18446;DHT22;9352;50.888;4.466;2023-03-23T10:11:50;14.00;99.90
18446;DHT22;9352;50.888;4.466;2023-03-23T10:14:29;14.20;99.90
18446;DHT22;9352;50.888;4.466;2023-03-23T10:17:03;14.30;99.90
18446;DHT22;9352;50.888;4.466;2023-03-23T10:19:36;14.40;99.90
18446;DHT22;9352;50.888;4.466;2023-03-23T10:22:10;14.50;99.90
18446;DHT22;9352;50.888;4.466;2023-03-23T10:24:43;14.60;99.90
18446;DHT22;9352;50.888;4.466;2023-03-23T10:27:26;14.50;99.90
18446;DHT22;9352;50.888;4.466;2023-03-23T10:29:58;14.60;99.90
18446;DHT22;9352;50.888;4.466;2023-03-23T10:32:39;14.80;99.90
18446;DHT22;9352;50.888;4.466;2023-03-23T10:35:12;14.90;99.90
18446;DHT22;9352;50.888;4.466;2023-03-23T10:37:44;14.90;99.90
18446;DHT22;9352;50.888;4.466;2023-03-23T10:40:17;14.90;99.90
18446;DHT22;9352;50.888;4.466;2023-03-23T10:42:45;14.90;99.90
18446;DHT22;9352;50.888;4.466;2023-03-23T10:45:17;14.90;99.90
18446;DHT22;9352;50.888;4.466;2023-03-23T10:47:48;15.00;99.90
18446;DHT22;9352;50.888;4.466;2023-03-23T10:50:22;15.20;99.90
18446;DHT22;9352;50.888;4.466;2023-03-23T10:52:51;15.10;99.90
18446;DHT22;9352;50.888;4.466;2023-03-23T10:55:21;15.80;99.90
18446;DHT22;9352;50.888;4.466;2023-03-23T10:57:59;16.50;99.90
18446;DHT22;9352;50.888;4.466;2023-03-23T11:00:28;16.70;99.90
18446;DHT22;9352;50.888;4.466;2023-03-23T11:03:00;16.50;99.90
18446;DHT22;9352;50.888;4.466;2023-03-23T11:05:34;16.60;99.90
18446;DHT22;9352;50.888;4.466;2023-03-23T11:08:01;16.60;99.90
18446;DHT22;9352;50.888;4.466;2023-03-23T11:10:36;16.50;99.90
18446;DHT22;9352;50.888;4.466;2023-03-23T11:13:04;16.30;99.90
18446;DHT22;9352;50.888;4.466;2023-03-23T11:15:37;16.50;99.90
18446;DHT22;9352;50.888;4.466;2023-03-23T11:18:09;16.50;99.90
18446;DHT22;9352;50.888;4.466;2023-03-23T11:20:38;16.80;99.90
18446;DHT22;9352;50.888;4.466;2023-03-23T11:23:20;16.90;99.90
18446;DHT22;9352;50.888;4.466;2023-03-23T11:25:55;16.50;99.90
18446;DHT22;9352;50.888;4.466;2023-03-23T11:28:28;16.10;99.90
18446;DHT22;9352;50.888;4.466;2023-03-23T11:30:57;15.80;99.90
18446;DHT22;9352;50.888;4.466;2023-03-23T11:33:28;15.60;99.90
18446;DHT22;9352;50.888;4.466;2023-03-23T11:35:55;15.90;99.90
18446;DHT22;9352;50.888;4.466;2023-03-23T11:38:23;16.70;99.90
18446;DHT22;9352;50.888;4.466;2023-03-23T11:40:55;16.90;99.90
18446;DHT22;9352;50.888;4.466;2023-03-23T11:43:23;17.30;99.90
18446;DHT22;9352;50.888;4.466;2023-03-23T11:45:59;18.30;99.90
18446;DHT22;9352;50.888;4.466;2023-03-23T11:48:34;18.20;99.90
18446;DHT22;9352;50.888;4.466;2023-03-23T11:51:08;18.30;99.90
18446;DHT22;9352;50.888;4.466;2023-03-23T11:53:45;18.20;99.90
18446;DHT22;9352;50.888;4.466;2023-03-23T11:56:23;18.00;99.90
18446;DHT22;9352;50.888;4.466;2023-03-23T11:58:51;18.30;99.90
18446;DHT22;9352;50.888;4.466;2023-03-23T12:01:32;18.40;99.90
18446;DHT22;9352;50.888;4.466;2023-03-23T12:07:34;18.60;99.90
18446;DHT22;9352;50.888;4.466;2023-03-23T12:10:14;19.20;99.90
18446;DHT22;9352;50.888;4.466;2023-03-23T12:12:50;18.80;99.90
18446;DHT22;9352;50.888;4.466;2023-03-23T12:15:22;18.50;99.90
18446;DHT22;9352;50.888;4.466;2023-03-23T12:17:56;18.90;99.90
18446;DHT22;9352;50.888;4.466;2023-03-23T12:20:33;19.50;99.90
18446;DHT22;9352;50.888;4.466;2023-03-23T12:23:12;19.20;99.90
18446;DHT22;9352;50.888;4.466;2023-03-23T12:25:57;19.40;99.90
18446;DHT22;9352;50.888;4.466;2023-03-23T12:28:37;20.10;99.90
18446;DHT22;9352;50.888;4.466;2023-03-23T12:31:11;20.60;99.90
18446;DHT22;9352;50.888;4.466;2023-03-23T12:33:48;20.80;99.90
18446;DHT22;9352;50.888;4.466;2023-03-23T12:36:26;20.80;99.90
18446;DHT22;9352;50.888;4.466;2023-03-23T12:41:59;20.70;99.90
18446;DHT22;9352;50.888;4.466;2023-03-23T12:44:35;21.00;99.90
18446;DHT22;9352;50.888;4.466;2023-03-23T12:49:58;21.60;99.90
18446;DHT22;9352;50.888;4.466;2023-03-23T12:52:30;21.90;99.90
18446;DHT22;9352;50.888;4.466;2023-03-23T12:55:01;21.90;99.90
18446;DHT22;9352;50.888;4.466;2023-03-23T12:57:34;21.30;99.90
18446;DHT22;9352;50.888;4.466;2023-03-23T13:00:08;20.60;99.90
18446;DHT22;9352;50.888;4.466;2023-03-23T13:02:42;19.80;99.90
18446;DHT22;9352;50.888;4.466;2023-03-23T13:05:24;18.80;99.90
18446;DHT22;9352;50.888;4.466;2023-03-23T13:07:55;18.20;99.90
18446;DHT22;9352;50.888;4.466;2023-03-23T13:10:26;17.80;99.90
18446;DHT22;9352;50.888;4.466;2023-03-23T13:12:53;17.60;99.90
18446;DHT22;9352;50.888;4.466;2023-03-23T13:15:31;17.50;99.90
18446;DHT22;9352;50.888;4.466;2023-03-23T13:18:04;18.00;99.90
18446;DHT22;9352;50.888;4.466;2023-03-23T13:23:30;17.70;99.90
18446;DHT22;9352;50.888;4.466;2023-03-23T13:26:00;17.60;99.90
18446;DHT22;9352;50.888;4.466;2023-03-23T13:28:30;17.90;99.90
18446;DHT22;9352;50.888;4.466;2023-03-23T13:31:02;18.90;99.90
18446;DHT22;9352;50.888;4.466;2023-03-23T13:33:31;20.20;99.90
18446;DHT22;9352;50.888;4.466;2023-03-23T13:36:13;19.90;99.90
18446;DHT22;9352;50.888;4.466;2023-03-23T13:38:46;19.60;99.90
18446;DHT22;9352;50.888;4.466;2023-03-23T13:41:16;19.40;99.90
18446;DHT22;9352;50.888;4.466;2023-03-23T13:43:44;19.90;99.90
18446;DHT22;9352;50.888;4.466;2023-03-23T13:46:25;20.30;99.90
18446;DHT22;9352;50.888;4.466;2023-03-23T13:49:13;20.60;99.90
18446;DHT22;9352;50.888;4.466;2023-03-23T13:51:52;20.00;99.90
18446;DHT22;9352;50.888;4.466;2023-03-23T13:54:29;19.30;99.90
18446;DHT22;9352;50.888;4.466;2023-03-23T13:56:57;18.60;99.90
18446;DHT22;9352;50.888;4.466;2023-03-23T13:59:33;18.20;99.90
18446;DHT22;9352;50.888;4.466;2023-03-23T14:02:31;17.80;99.90
18446;DHT22;9352;50.888;4.466;2023-03-23T14:05:24;17.70;99.90
18446;DHT22;9352;50.888;4.466;2023-03-23T14:07:55;17.70;99.90
18446;DHT22;9352;50.888;4.466;2023-03-23T14:10:30;17.60;99.90
18446;DHT22;9352;50.888;4.466;2023-03-23T14:12:59;17.40;99.90
18446;DHT22;9352;50.888;4.466;2023-03-23T14:15:29;17.20;99.90
18446;DHT22;9352;50.888;4.466;2023-03-23T14:18:02;17.20;99.90
18446;DHT22;9352;50.888;4.466;2023-03-23T14:20:32;17.10;99.90
18446;DHT22;9352;50.888;4.466;2023-03-23T14:23:00;17.10;99.90
18446;DHT22;9352;50.888;4.466;2023-03-23T14:25:29;18.00;99.90
18446;DHT22;9352;50.888;4.466;2023-03-23T14:27:57;19.50;99.90
18446;DHT22;9352;50.888;4.466;2023-03-23T14:30:26;19.20;99.90
18446;DHT22;9352;50.888;4.466;2023-03-23T14:33:04;19.20;99.90
18446;DHT22;9352;50.888;4.466;2023-03-23T14:35:35;20.10;99.90
18446;DHT22;9352;50.888;4.466;2023-03-23T14:38:03;19.60;99.90
18446;DHT22;9352;50.888;4.466;2023-03-23T14:40:31;19.00;99.90
18446;DHT22;9352;50.888;4.466;2023-03-23T14:42:59;18.40;99.90
18446;DHT22;9352;50.888;4.466;2023-03-23T14:45:26;17.90;99.90
18446;DHT22;9352;50.888;4.466;2023-03-23T14:47:56;17.30;99.90
18446;DHT22;9352;50.888;4.466;2023-03-23T14:50:28;17.00;99.90
18446;DHT22;9352;50.888;4.466;2023-03-23T14:53:02;16.60;99.90
18446;DHT22;9352;50.888;4.466;2023-03-23T14:55:30;16.50;99.90
18446;DHT22;9352;50.888;4.466;2023-03-23T14:58:06;16.50;99.90
18446;DHT22;9352;50.888;4.466;2023-03-23T15:00:37;16.80;99.90
18446;DHT22;9352;50.888;4.466;2023-03-23T15:03:10;17.10;99.90
18446;DHT22;9352;50.888;4.466;2023-03-23T15:05:43;17.50;99.90
18446;DHT22;9352;50.888;4.466;2023-03-23T15:08:14;18.30;99.90
18446;DHT22;9352;50.888;4.466;2023-03-23T15:10:42;20.50;99.90
18446;DHT22;9352;50.888;4.466;2023-03-23T15:13:11;21.60;99.90
18446;DHT22;9352;50.888;4.466;2023-03-23T15:15:38;22.20;99.90
18446;DHT22;9352;50.888;4.466;2023-03-23T15:18:25;22.60;99.90
18446;DHT22;9352;50.888;4.466;2023-03-23T15:20:54;21.30;99.90
18446;DHT22;9352;50.888;4.466;2023-03-23T15:23:26;20.00;99.90
18446;DHT22;9352;50.888;4.466;2023-03-23T15:25:54;19.20;99.90
18446;DHT22;9352;50.888;4.466;2023-03-23T15:28:29;20.30;99.90
18446;DHT22;9352;50.888;4.466;2023-03-23T15:30:59;20.40;99.90
18446;DHT22;9352;50.888;4.466;2023-03-23T15:33:27;19.50;99.90
18446;DHT22;9352;50.888;4.466;2023-03-23T15:36:06;18.70;99.90
18446;DHT22;9352;50.888;4.466;2023-03-23T15:38:34;18.20;99.90
18446;DHT22;9352;50.888;4.466;2023-03-23T15:41:04;18.00;99.90
18446;DHT22;9352;50.888;4.466;2023-03-23T15:43:33;18.00;99.90
18446;DHT22;9352;50.888;4.466;2023-03-23T15:46:02;17.60;99.90
18446;DHT22;9352;50.888;4.466;2023-03-23T15:48:31;17.40;99.90
18446;DHT22;9352;50.888;4.466;2023-03-23T15:50:59;17.10;99.90
18446;DHT22;9352;50.888;4.466;2023-03-23T15:53:29;16.90;99.90
18446;DHT22;9352;50.888;4.466;2023-03-23T15:55:59;16.70;99.90
18446;DHT22;9352;50.888;4.466;2023-03-23T15:58:28;16.50;99.90
18446;DHT22;9352;50.888;4.466;2023-03-23T16:00:55;16.40;99.90
18446;DHT22;9352;50.888;4.466;2023-03-23T16:03:25;16.30;99.90
18446;DHT22;9352;50.888;4.466;2023-03-23T16:05:53;16.50;99.90
18446;DHT22;9352;50.888;4.466;2023-03-23T16:08:21;16.80;99.90
18446;DHT22;9352;50.888;4.466;2023-03-23T16:10:50;17.00;99.90
18446;DHT22;9352;50.888;4.466;2023-03-23T16:13:17;17.00;99.90
18446;DHT22;9352;50.888;4.466;2023-03-23T16:15:45;17.00;99.90
18446;DHT22;9352;50.888;4.466;2023-03-23T16:18:17;16.80;99.90
18446;DHT22;9352;50.888;4.466;2023-03-23T16:20:44;16.70;99.90
18446;DHT22;9352;50.888;4.466;2023-03-23T16:23:11;16.60;99.90